createdAt,value
2018-12-15T00:01:57.945Z,99092.09
2018-12-15T00:04:28.559Z,99090.52
2018-12-15T00:06:57.385Z,99082.34
2018-12-15T00:09:25.288Z,99086.30
2018-12-15T00:11:52.934Z,99083.28
2018-12-15T00:14:20.519Z,99084.83
2018-12-15T00:16:48.126Z,99073.25
2018-12-15T00:19:16.025Z,99085.02
2018-12-15T00:21:43.923Z,99084.58
2018-12-15T00:24:11.478Z,99091.74
2018-12-15T00:26:39.074Z,99083.89
2018-12-15T00:29:06.795Z,99088.71
2018-12-15T00:31:34.420Z,99092.06
2018-12-15T00:34:02.382Z,99095.11
2018-12-15T00:36:30.010Z,99092.50
2018-12-15T00:38:57.655Z,99095.11
2018-12-15T00:41:25.534Z,99096.02
2018-12-15T00:43:53.104Z,99092.25
2018-12-15T00:46:20.690Z,99100.80
2018-12-15T00:48:48.508Z,99094.22
2018-12-15T00:51:16.113Z,99106.19
2018-12-15T00:53:43.726Z,99110.77
2018-12-15T00:56:11.332Z,99101.55
2018-12-15T00:58:38.988Z,99103.14
2018-12-15T01:01:06.657Z,99109.91
2018-12-15T01:03:34.393Z,99113.13
2018-12-15T01:06:01.984Z,99116.15
2018-12-15T01:08:30.033Z,99121.81
2018-12-15T01:10:57.594Z,99120.58
2018-12-15T01:13:25.285Z,99128.59
2018-12-15T01:15:52.847Z,99137.44
2018-12-15T01:18:20.379Z,99134.73
2018-12-15T01:20:47.923Z,99139.54
2018-12-15T01:23:15.490Z,99138.07
2018-12-15T01:25:43.029Z,99136.33
2018-12-15T01:28:10.745Z,99131.00
2018-12-15T01:30:38.545Z,99137.50
2018-12-15T01:33:06.365Z,99140.84
2018-12-15T01:35:33.955Z,99135.50
2018-12-15T01:38:01.688Z,99137.95
2018-12-15T01:40:29.322Z,99147.16
2018-12-15T01:42:56.908Z,99150.12
2018-12-15T01:45:24.562Z,99145.91
2018-12-15T01:47:52.107Z,99143.52
2018-12-15T01:50:20.865Z,99144.44
2018-12-15T01:52:48.567Z,99144.22
2018-12-15T01:55:16.198Z,99144.77
2018-12-15T01:57:43.803Z,99139.39
2018-12-15T02:00:13.103Z,99142.34
2018-12-15T02:02:41.014Z,99143.41
2018-12-15T02:05:08.622Z,99143.84
2018-12-15T02:07:36.310Z,99146.56
2018-12-15T02:10:04.406Z,99148.67
2018-12-15T02:12:31.970Z,99146.37
2018-12-15T02:14:59.831Z,99156.89
2018-12-15T02:17:33.444Z,99158.70
2018-12-15T02:19:57.260Z,99149.85
2018-12-15T02:22:24.867Z,99153.24
2018-12-15T02:24:52.473Z,99154.92
2018-12-15T02:27:20.071Z,99159.81
2018-12-15T02:29:47.643Z,99155.30
2018-12-15T02:32:15.365Z,99151.09
2018-12-15T02:34:42.955Z,99151.63
2018-12-15T02:37:10.566Z,99150.94
2018-12-15T02:39:38.373Z,99158.81
2018-12-15T02:42:05.938Z,99155.83
2018-12-15T02:44:34.687Z,99151.27
2018-12-15T02:47:02.340Z,99149.66
2018-12-15T02:49:29.975Z,99157.08
2018-12-15T02:51:57.591Z,99159.08
2018-12-15T02:54:26.019Z,99153.88
2018-12-15T02:56:53.824Z,99159.73
2018-12-15T02:59:21.417Z,99156.33
2018-12-15T03:01:49.160Z,99155.91
2018-12-15T03:04:16.796Z,99160.05
2018-12-15T03:06:44.370Z,99170.78
2018-12-15T03:09:11.904Z,99169.15
2018-12-15T03:14:24.071Z,99176.47
2018-12-15T03:16:57.107Z,99173.19
2018-12-15T03:19:24.875Z,99177.56
2018-12-15T03:21:52.472Z,99181.16
2018-12-15T03:24:20.143Z,99186.66
2018-12-15T03:26:47.689Z,99190.88
2018-12-15T03:29:15.737Z,99189.16
2018-12-15T03:31:43.429Z,99191.75
2018-12-15T03:34:11.048Z,99189.66
2018-12-15T03:36:38.623Z,99192.27
2018-12-15T03:39:06.329Z,99192.31
2018-12-15T03:41:34.023Z,99184.02
2018-12-15T03:44:01.555Z,99181.91
2018-12-15T03:46:29.112Z,99188.55
2018-12-15T03:48:56.721Z,99183.97
2018-12-15T03:51:24.318Z,99182.35
2018-12-15T03:53:51.923Z,99186.05
2018-12-15T03:56:19.527Z,99190.38
2018-12-15T03:58:47.168Z,99196.61
2018-12-15T04:01:14.730Z,99197.07
2018-12-15T04:03:42.283Z,99198.44
2018-12-15T04:06:09.872Z,99193.36
2018-12-15T04:08:37.603Z,99194.66
2018-12-15T04:11:05.185Z,99197.30
2018-12-15T04:13:32.987Z,99200.66
2018-12-15T04:16:00.520Z,99195.89
2018-12-15T04:18:28.125Z,99204.44
2018-12-15T04:20:55.725Z,99205.17
2018-12-15T04:23:23.389Z,99207.98
2018-12-15T04:25:50.888Z,99211.18
2018-12-15T04:28:18.504Z,99210.51
2018-12-15T04:30:46.177Z,99213.64
2018-12-15T04:33:14.403Z,99206.31
2018-12-15T04:35:41.974Z,99211.20
2018-12-15T04:38:10.458Z,99203.91
2018-12-15T04:40:38.439Z,99208.56
2018-12-15T04:43:06.109Z,99208.62
2018-12-15T04:45:34.004Z,99207.98
2018-12-15T04:48:01.716Z,99201.16
2018-12-15T04:50:29.233Z,99204.38
2018-12-15T04:52:57.004Z,99200.55
2018-12-15T04:55:24.591Z,99194.11
2018-12-15T04:57:52.097Z,99203.02
2018-12-15T05:00:19.669Z,99201.30
2018-12-15T05:02:47.312Z,99196.85
2018-12-15T05:05:15.010Z,99196.45
2018-12-15T05:07:42.584Z,99188.72
2018-12-15T05:10:10.223Z,99191.08
2018-12-15T05:12:37.804Z,99193.26
2018-12-15T05:15:05.545Z,99189.27
2018-12-15T05:17:33.259Z,99192.69
2018-12-15T05:20:00.771Z,99193.23
2018-12-15T05:22:28.382Z,99194.91
2018-12-15T05:24:56.076Z,99189.78
2018-12-15T05:27:23.835Z,99192.83
2018-12-15T05:29:51.522Z,99185.02
2018-12-15T05:32:19.088Z,99183.78
2018-12-15T05:34:46.781Z,99191.14
2018-12-15T05:37:14.382Z,99187.85
2018-12-15T05:39:42.102Z,99188.61
2018-12-15T05:42:09.705Z,99178.92
2018-12-15T05:44:37.404Z,99182.27
2018-12-15T05:47:05.023Z,99176.27
2018-12-15T05:49:32.633Z,99180.05
2018-12-15T05:52:00.175Z,99179.55
2018-12-15T05:54:27.835Z,99180.61
2018-12-15T05:56:55.502Z,99183.16
2018-12-15T05:59:23.073Z,99184.38
2018-12-15T06:01:50.707Z,99180.42
2018-12-15T06:04:18.202Z,99181.73
2018-12-15T06:06:46.625Z,99186.73
2018-12-15T06:09:14.205Z,99183.03
2018-12-15T06:11:41.767Z,99182.66
2018-12-15T06:14:09.305Z,99183.14
2018-12-15T06:16:37.170Z,99186.75
2018-12-15T06:19:04.694Z,99189.45
2018-12-15T06:21:32.372Z,99188.65
2018-12-15T06:24:00.413Z,99190.16
2018-12-15T06:26:28.047Z,99188.31
2018-12-15T06:28:55.797Z,99194.78
2018-12-15T06:31:23.344Z,99195.31
2018-12-15T06:33:51.520Z,99194.17
2018-12-15T06:36:19.209Z,99190.75
2018-12-15T06:38:46.918Z,99194.84
2018-12-15T06:41:14.517Z,99192.99
2018-12-15T06:43:42.507Z,99191.06
2018-12-15T06:46:10.408Z,99189.84
2018-12-15T06:48:38.326Z,99193.30
2018-12-15T06:51:06.208Z,99190.20
2018-12-15T06:53:33.757Z,99191.08
2018-12-15T06:56:01.392Z,99203.84
2018-12-15T06:58:29.206Z,99201.06
2018-12-15T07:00:57.128Z,99202.97
2018-12-15T07:03:25.101Z,99204.06
2018-12-15T07:05:52.763Z,99203.28
2018-12-15T07:08:20.466Z,99200.09
2018-12-15T07:10:48.103Z,99202.31
2018-12-15T07:13:15.751Z,99201.16
2018-12-15T07:15:43.519Z,99202.29
2018-12-15T07:18:12.349Z,99201.17
2018-12-15T07:20:39.982Z,99205.55
2018-12-15T07:23:07.729Z,99204.74
2018-12-15T07:25:35.812Z,99206.87
2018-12-15T07:28:03.389Z,99205.73
2018-12-15T07:30:31.445Z,99212.23
2018-12-15T07:32:59.069Z,99207.42
2018-12-15T07:35:27.490Z,99205.79
2018-12-15T07:37:55.076Z,99206.93
2018-12-15T07:40:22.645Z,99214.30
2018-12-15T07:42:50.367Z,99210.88
2018-12-15T07:45:18.150Z,99214.30
2018-12-15T07:48:51.535Z,99214.91
2018-12-15T07:51:18.999Z,99212.67
2018-12-15T07:53:46.730Z,99212.56
2018-12-15T07:56:14.281Z,99215.66
2018-12-15T07:58:41.925Z,99215.16
2018-12-15T08:01:09.458Z,99217.59
2018-12-15T08:03:37.555Z,99218.06
2018-12-15T08:06:05.133Z,99220.67
2018-12-15T08:08:32.769Z,99224.91
2018-12-15T08:11:05.769Z,99221.49
2018-12-15T08:13:33.397Z,99222.17
2018-12-15T08:16:01.227Z,99227.91
2018-12-15T08:18:28.964Z,99227.50
2018-12-15T08:20:56.463Z,99230.27
2018-12-15T08:23:23.996Z,99228.29
2018-12-15T08:25:51.580Z,99227.75
2018-12-15T08:28:19.141Z,99232.58
2018-12-15T08:30:46.793Z,99222.52
2018-12-15T08:33:14.697Z,99228.00
2018-12-15T08:35:42.358Z,99227.89
2018-12-15T08:38:10.105Z,99225.84
2018-12-15T08:40:37.812Z,99234.57
2018-12-15T08:43:05.432Z,99230.13
2018-12-15T08:45:33.141Z,99234.30
2018-12-15T08:48:00.712Z,99241.78
2018-12-15T08:50:28.241Z,99238.07
2018-12-15T08:52:55.841Z,99236.16
2018-12-15T08:55:23.366Z,99238.63
2018-12-15T08:57:50.953Z,99236.78
2018-12-15T09:00:18.577Z,99234.67
2018-12-15T09:02:46.392Z,99237.92
2018-12-15T09:05:13.944Z,99240.80
2018-12-15T09:07:42.310Z,99239.78
2018-12-15T09:10:10.225Z,99236.69
2018-12-15T09:12:37.928Z,99226.55
2018-12-15T09:15:05.773Z,99230.73
2018-12-15T09:17:33.331Z,99233.86
2018-12-15T09:20:00.960Z,99238.84
2018-12-15T09:22:28.477Z,99232.97
2018-12-15T09:24:56.299Z,99229.89
2018-12-15T09:27:24.076Z,99234.94
2018-12-15T09:29:51.722Z,99230.33
2018-12-15T09:32:19.481Z,99234.89
2018-12-15T09:34:47.178Z,99238.27
2018-12-15T09:37:15.099Z,99238.92
2018-12-15T09:39:42.932Z,99237.94
2018-12-15T09:42:10.460Z,99237.55
2018-12-15T09:44:38.016Z,99235.70
2018-12-15T09:47:05.814Z,99234.03
2018-12-15T09:49:33.331Z,99232.84
2018-12-15T09:52:00.933Z,99232.41
2018-12-15T09:54:28.473Z,99224.48
2018-12-15T09:56:56.005Z,99218.19
2018-12-15T09:59:23.525Z,99216.19
2018-12-15T10:01:51.073Z,99218.09
2018-12-15T10:04:18.869Z,99217.75
2018-12-15T10:06:47.756Z,99213.52
2018-12-15T10:09:15.914Z,99210.70
2018-12-15T10:11:43.677Z,99212.70
2018-12-15T10:14:11.213Z,99212.16
2018-12-15T10:16:38.836Z,99206.45
2018-12-15T10:19:06.564Z,99203.80
2018-12-15T10:21:34.280Z,99205.55
2018-12-15T10:24:01.915Z,99200.83
2018-12-15T10:26:29.492Z,99195.63
2018-12-15T10:28:57.039Z,99195.30
2018-12-15T10:31:29.985Z,99193.30
2018-12-15T10:33:57.558Z,99186.84
2018-12-15T10:36:25.276Z,99175.66
2018-12-15T10:38:52.846Z,99178.69
2018-12-15T10:41:20.572Z,99184.89
2018-12-15T10:43:48.367Z,99182.23
2018-12-15T10:46:15.967Z,99179.03
2018-12-15T10:48:43.541Z,99179.13
2018-12-15T10:51:11.778Z,99183.59
2018-12-15T10:53:40.827Z,99182.76
2018-12-15T10:56:08.384Z,99172.84
2018-12-15T10:58:36.525Z,99181.45
2018-12-15T11:01:09.413Z,99188.41
2018-12-15T11:03:37.051Z,99184.39
2018-12-15T11:06:04.671Z,99182.45
2018-12-15T11:08:32.343Z,99178.70
2018-12-15T11:10:59.882Z,99180.87
2018-12-15T11:13:27.562Z,99179.83
2018-12-15T11:15:55.125Z,99177.82
2018-12-15T11:18:22.820Z,99166.92
2018-12-15T11:20:50.408Z,99169.64
2018-12-15T11:23:17.983Z,99168.56
2018-12-15T11:25:45.539Z,99161.50
2018-12-15T11:28:13.106Z,99163.02
2018-12-15T11:30:40.660Z,99160.47
2018-12-15T11:33:09.050Z,99156.57
2018-12-15T11:35:36.776Z,99157.16
2018-12-15T11:38:04.567Z,99148.05
2018-12-15T11:40:32.278Z,99152.59
2018-12-15T11:43:01.015Z,99151.84
2018-12-15T11:45:28.585Z,99146.74
2018-12-15T11:47:56.483Z,99145.01
2018-12-15T11:50:24.127Z,99142.08
2018-12-15T11:52:51.798Z,99134.16
2018-12-15T11:55:19.565Z,99131.21
2018-12-15T11:57:47.322Z,99134.63
2018-12-15T12:00:15.187Z,99125.91
2018-12-15T12:02:42.937Z,99118.48
2018-12-15T12:05:10.644Z,99122.17
2018-12-15T12:07:38.285Z,99120.22
2018-12-15T12:10:06.623Z,99112.97
2018-12-15T12:12:34.165Z,99114.03
2018-12-15T12:15:01.863Z,99115.77
2018-12-15T12:17:29.449Z,99113.94
2018-12-15T12:19:57.106Z,99115.48
2018-12-15T12:22:24.713Z,99107.30
2018-12-15T12:24:52.287Z,99112.30
2018-12-15T12:27:19.887Z,99109.08
2018-12-15T12:29:47.627Z,99106.81
2018-12-15T12:32:15.290Z,99112.59
2018-12-15T12:34:43.223Z,99108.92
2018-12-15T12:37:11.021Z,99112.39
2018-12-15T12:39:38.803Z,99108.40
2018-12-15T12:42:06.523Z,99105.12
2018-12-15T12:44:34.087Z,99110.27
2018-12-15T12:47:01.743Z,99104.69
2018-12-15T12:49:29.394Z,99101.27
2018-12-15T12:51:57.122Z,99101.17
2018-12-15T12:54:24.725Z,99093.35
2018-12-15T12:56:52.329Z,99099.42
2018-12-15T12:59:19.984Z,99102.18
2018-12-15T13:01:47.549Z,99101.35
2018-12-15T13:04:15.225Z,99101.79
2018-12-15T13:06:42.785Z,99099.05
2018-12-15T13:09:10.375Z,99094.97
2018-12-15T13:11:38.113Z,99094.88
2018-12-15T13:14:05.930Z,99090.84
2018-12-15T13:16:33.562Z,99095.18
2018-12-15T13:19:01.515Z,99094.27
2018-12-15T13:21:29.038Z,99094.08
2018-12-15T13:23:56.849Z,99082.92
2018-12-15T13:26:24.563Z,99083.12
2018-12-15T13:28:52.141Z,99078.44
2018-12-15T13:31:20.159Z,99078.86
2018-12-15T13:33:48.253Z,99077.26
2018-12-15T13:36:17.534Z,99086.37
2018-12-15T13:38:45.491Z,99080.69
2018-12-15T13:41:13.303Z,99088.67
2018-12-15T13:43:40.922Z,99079.22
2018-12-15T13:46:08.709Z,99089.01
2018-12-15T13:48:36.302Z,99085.58
2018-12-15T13:51:03.926Z,99090.70
2018-12-15T13:53:31.524Z,99095.86
2018-12-15T13:55:59.085Z,99089.59
2018-12-15T13:58:26.818Z,99089.30
2018-12-15T14:00:54.342Z,99084.19
2018-12-15T14:03:21.938Z,99084.14
2018-12-15T14:05:49.548Z,99089.88
2018-12-15T14:08:17.521Z,99084.33
2018-12-15T14:10:45.193Z,99087.51
2018-12-15T14:13:12.858Z,99089.10
2018-12-15T14:15:40.482Z,99083.66
2018-12-15T14:18:08.338Z,99081.40
2018-12-15T14:20:35.938Z,99085.05
2018-12-15T14:23:03.579Z,99084.48
2018-12-15T14:25:31.166Z,99089.24
2018-12-15T14:27:58.843Z,99081.97
2018-12-15T14:30:26.490Z,99084.95
2018-12-15T14:32:54.318Z,99084.19
2018-12-15T14:35:22.032Z,99082.69
2018-12-15T14:37:49.634Z,99082.64
2018-12-15T14:40:17.250Z,99087.98
2018-12-15T14:42:44.770Z,99082.20
2018-12-15T14:45:12.401Z,99080.56
2018-12-15T14:47:39.979Z,99085.39
2018-12-15T14:50:07.828Z,99080.72
2018-12-15T14:52:35.491Z,99088.58
2018-12-15T14:55:03.006Z,99083.65
2018-12-15T14:57:31.391Z,99085.44
2018-12-15T14:59:58.972Z,99084.95
2018-12-15T15:02:26.785Z,99078.87
2018-12-15T15:04:54.385Z,99080.03
2018-12-15T15:07:21.971Z,99079.20
2018-12-15T15:09:49.734Z,99075.73
2018-12-15T15:12:17.401Z,99079.27
2018-12-15T15:14:44.989Z,99077.81
2018-12-15T15:17:12.740Z,99068.55
2018-12-15T15:19:40.278Z,99072.94
2018-12-15T15:22:08.017Z,99070.00
2018-12-15T15:24:35.578Z,99065.77
2018-12-15T15:27:03.301Z,99068.03
2018-12-15T15:29:31.033Z,99060.22
2018-12-15T15:31:58.595Z,99058.53
2018-12-15T15:34:26.187Z,99050.86
2018-12-15T15:36:53.782Z,99048.48
2018-12-15T15:39:21.504Z,99045.45
2018-12-15T15:41:49.100Z,99043.05
2018-12-15T15:44:16.661Z,99039.91
2018-12-15T15:46:44.381Z,99040.57
2018-12-15T15:49:12.069Z,99041.89
2018-12-15T15:51:39.633Z,99047.08
2018-12-15T15:54:07.190Z,99035.31
2018-12-15T15:56:34.770Z,99032.23
2018-12-15T15:59:02.389Z,99032.37
2018-12-15T16:01:30.082Z,99034.84
2018-12-15T16:03:57.725Z,99028.44
2018-12-15T16:06:25.310Z,99026.61
2018-12-15T16:08:52.853Z,99025.31
2018-12-15T16:11:20.627Z,99029.49
2018-12-15T16:13:48.204Z,99029.05
2018-12-15T16:16:21.560Z,99030.88
2018-12-15T16:18:49.318Z,99032.90
2018-12-15T16:21:16.916Z,99017.42
2018-12-15T16:23:44.519Z,99024.75
2018-12-15T16:26:12.316Z,99022.20
2018-12-15T16:28:41.245Z,99016.18
2018-12-15T16:31:08.881Z,99007.80
2018-12-15T16:33:36.915Z,99006.20
2018-12-15T16:36:04.479Z,99000.38
2018-12-15T16:38:32.153Z,99000.47
2018-12-15T16:40:59.814Z,98994.01
2018-12-15T16:43:27.520Z,98993.87
2018-12-15T16:45:55.205Z,98994.92
2018-12-15T16:48:22.792Z,98991.73
2018-12-15T16:50:50.406Z,98988.28
2018-12-15T16:53:18.108Z,98987.89
2018-12-15T16:55:45.939Z,98991.36
2018-12-15T16:58:13.651Z,98992.08
2018-12-15T17:00:41.321Z,98997.48
2018-12-15T17:03:08.883Z,98995.98
2018-12-15T17:09:14.006Z,98991.82
2018-12-15T17:11:41.875Z,99000.22
2018-12-15T17:14:09.604Z,98992.31
2018-12-15T17:16:37.351Z,98985.16
2018-12-15T17:19:05.060Z,98980.33
2018-12-15T17:21:32.918Z,98975.08
2018-12-15T17:24:00.530Z,98973.14
2018-12-15T17:26:28.301Z,98965.66
2018-12-15T17:28:55.960Z,98971.62
2018-12-15T17:31:23.733Z,98969.50
2018-12-15T17:33:51.372Z,98957.70
2018-12-15T17:36:19.248Z,98958.72
2018-12-15T17:38:46.802Z,98953.89
2018-12-15T17:41:14.373Z,98956.82
2018-12-15T17:43:42.076Z,98952.81
2018-12-15T17:46:09.739Z,98951.29
2018-12-15T17:48:37.345Z,98954.72
2018-12-15T17:51:04.923Z,98956.87
2018-12-15T17:53:32.689Z,98954.72
2018-12-15T17:56:00.379Z,98949.98
2018-12-15T17:58:27.978Z,98947.23
2018-12-15T18:00:55.697Z,98940.23
2018-12-15T18:03:23.455Z,98941.06
2018-12-15T18:05:51.112Z,98938.41
2018-12-15T18:08:18.792Z,98943.59
2018-12-15T18:10:46.422Z,98937.10
2018-12-15T18:13:14.096Z,98933.25
2018-12-15T18:15:45.562Z,98925.84
2018-12-15T18:18:14.310Z,98924.70
2018-12-15T18:20:41.851Z,98927.15
2018-12-15T18:23:09.697Z,98919.45
2018-12-15T18:25:37.332Z,98914.09
2018-12-15T18:28:04.896Z,98913.25
2018-12-15T18:30:33.039Z,98906.76
2018-12-15T18:33:00.689Z,98910.95
2018-12-15T18:35:28.366Z,98904.82
2018-12-15T18:37:55.919Z,98896.75
2018-12-15T18:40:23.463Z,98895.70
2018-12-15T18:42:51.026Z,98898.06
2018-12-15T18:45:18.803Z,98887.96
2018-12-15T18:47:46.447Z,98875.28
2018-12-15T18:50:14.026Z,98878.18
2018-12-15T18:52:41.801Z,98873.61
2018-12-15T18:55:09.448Z,98868.09
2018-12-15T18:57:36.997Z,98870.70
2018-12-15T19:00:05.518Z,98867.22
2018-12-15T19:02:33.170Z,98859.67
2018-12-15T19:05:00.764Z,98860.03
2018-12-15T19:07:28.315Z,98863.34
2018-12-15T19:09:55.885Z,98861.94
2018-12-15T19:12:23.617Z,98857.16
2018-12-15T19:14:51.259Z,98853.16
2018-12-15T19:17:18.820Z,98851.66
2018-12-15T19:19:46.356Z,98852.52
2018-12-15T19:22:14.147Z,98848.50
2018-12-15T19:24:41.756Z,98847.98
2018-12-15T19:27:09.582Z,98842.61
2018-12-15T19:29:37.148Z,98839.92
2018-12-15T19:32:04.751Z,98827.83
2018-12-15T19:34:33.153Z,98831.16
2018-12-15T19:37:00.873Z,98831.16
2018-12-15T19:39:30.363Z,98828.49
2018-12-15T19:41:57.963Z,98823.89
2018-12-15T19:44:25.638Z,98818.77
2018-12-15T19:46:53.368Z,98819.58
2018-12-15T19:49:21.386Z,98816.28
2018-12-15T19:51:49.097Z,98811.47
2018-12-15T19:54:16.800Z,98798.36
2018-12-15T19:56:44.390Z,98797.41
2018-12-15T19:59:14.340Z,98791.75
2018-12-15T20:01:42.691Z,98783.53
2018-12-15T20:04:10.257Z,98781.73
2018-12-15T20:06:37.940Z,98782.47
2018-12-15T20:09:07.675Z,98778.85
2018-12-15T20:11:35.824Z,98774.48
2018-12-15T20:14:04.400Z,98780.59
2018-12-15T20:16:33.677Z,98770.50
2018-12-15T20:19:01.291Z,98771.80
2018-12-15T20:21:35.853Z,98767.77
2018-12-15T20:23:59.194Z,98764.26
2018-12-15T20:26:27.028Z,98765.47
2018-12-15T20:28:54.612Z,98771.17
2018-12-15T20:31:22.118Z,98760.66
2018-12-15T20:33:49.797Z,98751.89
2018-12-15T20:36:17.435Z,98741.90
2018-12-15T20:38:45.074Z,98736.84
2018-12-15T20:41:12.755Z,98738.59
2018-12-15T20:43:40.320Z,98740.16
2018-12-15T20:46:08.078Z,98737.21
2018-12-15T20:48:35.709Z,98738.06
2018-12-15T20:51:03.409Z,98732.01
2018-12-15T20:53:31.195Z,98730.21
2018-12-15T20:56:00.045Z,98726.41
2018-12-15T20:58:30.958Z,98728.94
2018-12-15T21:01:01.083Z,98730.16
2018-12-15T21:03:30.259Z,98733.02
2018-12-15T21:06:01.143Z,98724.92
2018-12-15T21:08:28.926Z,98721.44
2018-12-15T21:10:57.515Z,98717.08
2018-12-15T21:13:25.630Z,98716.91
2018-12-15T21:15:56.842Z,98708.02
2018-12-15T21:18:24.688Z,98708.02
2018-12-15T21:20:52.674Z,98703.02
2018-12-15T21:23:20.481Z,98702.52
2018-12-15T21:25:48.061Z,98696.78
2018-12-15T21:28:16.253Z,98700.83
2018-12-15T21:30:44.149Z,98703.41
2018-12-15T21:33:11.908Z,98694.34
2018-12-15T21:35:40.885Z,98688.96
2018-12-15T21:38:08.741Z,98683.68
2018-12-15T21:40:36.669Z,98670.86
2018-12-15T21:43:04.259Z,98664.39
2018-12-15T21:45:32.766Z,98656.12
2018-12-15T21:48:00.399Z,98649.58
2018-12-15T21:50:28.149Z,98635.36
2018-12-15T21:52:56.603Z,98638.00
2018-12-15T21:55:24.424Z,98627.69
2018-12-15T21:57:52.279Z,98629.98
2018-12-15T22:00:19.968Z,98623.92
2018-12-15T22:02:48.936Z,98623.13
2018-12-15T22:05:16.752Z,98624.28
2018-12-15T22:07:45.255Z,98620.33
2018-12-15T22:10:12.898Z,98621.11
2018-12-15T22:12:40.477Z,98619.40
2018-12-15T22:15:08.181Z,98615.68
2018-12-15T22:17:36.118Z,98621.44
2018-12-15T22:20:04.775Z,98605.97
2018-12-15T22:22:32.575Z,98593.17
2018-12-15T22:25:00.281Z,98591.91
2018-12-15T22:27:28.034Z,98585.63
2018-12-15T22:29:55.819Z,98593.46
2018-12-15T22:32:23.873Z,98597.92
2018-12-15T22:34:51.545Z,98591.21
2018-12-15T22:37:19.842Z,98575.69
2018-12-15T22:39:47.811Z,98577.05
2018-12-15T22:42:15.742Z,98578.98
2018-12-15T22:44:44.127Z,98577.89
2018-12-15T22:47:11.799Z,98569.38
2018-12-15T22:49:39.558Z,98550.53
2018-12-15T22:52:09.927Z,98543.69
2018-12-15T22:54:36.917Z,98531.05
2018-12-15T22:57:04.587Z,98532.84
2018-12-15T22:59:32.341Z,98527.73
2018-12-15T23:01:59.982Z,98522.08
2018-12-15T23:04:27.742Z,98517.39
2018-12-15T23:06:55.230Z,98508.69
2018-12-15T23:09:22.767Z,98505.86
2018-12-15T23:11:50.694Z,98497.42
2018-12-15T23:14:18.341Z,98490.19
2018-12-15T23:16:46.369Z,98483.17
2018-12-15T23:19:14.047Z,98479.03
2018-12-15T23:21:41.941Z,98477.56
2018-12-15T23:24:10.215Z,98472.52
2018-12-15T23:26:37.837Z,98466.09
2018-12-15T23:29:06.471Z,98456.84
2018-12-15T23:31:34.322Z,98449.44
2018-12-15T23:34:02.210Z,98444.38
2018-12-15T23:36:30.341Z,98443.89
2018-12-15T23:38:58.377Z,98447.45
2018-12-15T23:41:26.332Z,98438.40
2018-12-15T23:43:54.528Z,98436.77
2018-12-15T23:46:23.773Z,98431.55
2018-12-15T23:48:51.861Z,98427.98
2018-12-15T23:51:20.179Z,98419.14
2018-12-15T23:53:48.062Z,98416.55
2018-12-15T23:56:15.686Z,98406.78
2018-12-15T23:58:44.154Z,98412.50
